Time;durP1;ratioP1;P1;durP2;ratioP2;P2;SDS_P1;SDS_P2;PMS_P1;PMS_P2;Temp;Humidity;BMP_temperature;BMP_pressure;BME280_temperature;BME280_humidity;BME280_pressure;Samples;Min_cycle;Max_cycle;Signal;HPM_P1;HPM_P2
2021/07/22 00:01:27;;;;;;;;;;;9.40;98.70;;;;;;5073033;28;19931;-66
2021/07/22 00:03:54;;;;;;;;;;;9.40;98.70;;;;;;5074336;28;19908;-68
2021/07/22 00:06:20;;;;;;;;;;;9.50;98.40;;;;;;5074446;28;19908;-66
2021/07/22 00:08:47;;;;;;;;;;;9.50;98.20;;;;;;5074609;28;20368;-66
2021/07/22 00:11:13;;;;;;;;;;;9.50;98.50;;;;;;5074398;28;19908;-66
2021/07/22 00:13:40;;;;;;;;;;;9.60;98.30;;;;;;5074286;28;20350;-67
2021/07/22 00:16:08;;;;;;;;;;;9.60;98.00;;;;;;5074200;28;19991;-66
2021/07/22 00:18:34;;;;;;;;;;;9.60;98.20;;;;;;5074415;28;20248;-65
2021/07/22 00:21:05;;;;;;;;;;;9.70;98.60;;;;;;5074372;28;19961;-67
2021/07/22 00:23:32;;;;;;;;;;;9.80;99.10;;;;;;5074232;28;19951;-67
2021/07/22 00:26:03;;;;;;;;;;;9.80;98.40;;;;;;5074235;28;20297;-67
2021/07/22 00:28:29;;;;;;;;;;;9.90;98.00;;;;;;5073973;28;19909;-69
2021/07/22 00:30:57;;;;;;;;;;;10.00;97.60;;;;;;5073931;28;19919;-66
2021/07/22 00:33:24;;;;;;;;;;;10.00;97.40;;;;;;5074108;28;19908;-66
2021/07/22 00:35:50;;;;;;;;;;;10.20;97.70;;;;;;5073798;28;20371;-66
2021/07/22 00:38:17;;;;;;;;;;;10.20;97.30;;;;;;5073875;28;19939;-65
2021/07/22 00:40:44;;;;;;;;;;;10.30;97.00;;;;;;5073917;28;19975;-65
2021/07/22 00:43:11;;;;;;;;;;;10.30;96.80;;;;;;5073453;28;19912;-64
2021/07/22 00:45:37;;;;;;;;;;;10.30;96.30;;;;;;5073485;28;19909;-64
2021/07/22 00:48:04;;;;;;;;;;;10.40;95.90;;;;;;5073598;28;19951;-66
2021/07/22 00:50:31;;;;;;;;;;;10.50;96.40;;;;;;5073200;28;20270;-65
2021/07/22 00:52:58;;;;;;;;;;;10.60;96.40;;;;;;5073668;28;19909;-65
2021/07/22 00:55:27;;;;;;;;;;;10.70;96.20;;;;;;5073740;28;19912;-65
2021/07/22 00:57:54;;;;;;;;;;;10.70;95.70;;;;;;5073195;28;19956;-65
2021/07/22 01:00:21;;;;;;;;;;;10.80;95.40;;;;;;5073432;28;20008;-66
2021/07/22 01:02:47;;;;;;;;;;;10.90;95.00;;;;;;5073582;28;19972;-64
2021/07/22 01:05:14;;;;;;;;;;;10.90;95.00;;;;;;5073480;28;20267;-64
2021/07/22 01:07:41;;;;;;;;;;;11.00;94.80;;;;;;5073247;28;19916;-64
2021/07/22 01:10:08;;;;;;;;;;;11.20;95.10;;;;;;5073211;28;20422;-64
2021/07/22 01:12:35;;;;;;;;;;;11.40;94.60;;;;;;5071589;28;19915;-65
2021/07/22 01:15:02;;;;;;;;;;;11.70;93.80;;;;;;5073297;28;19968;-65
2021/07/22 01:17:42;;;;;;;;;;;11.80;93.80;;;;;;5073055;28;19916;-65
2021/07/22 01:20:10;;;;;;;;;;;12.00;93.80;;;;;;5073016;28;19908;-65
2021/07/22 01:22:37;;;;;;;;;;;12.10;93.20;;;;;;5073073;28;19908;-65
2021/07/22 01:25:05;;;;;;;;;;;12.30;92.80;;;;;;5073014;28;19916;-66
2021/07/22 01:27:32;;;;;;;;;;;12.60;92.30;;;;;;5072953;28;20339;-66
2021/07/22 01:29:58;;;;;;;;;;;12.60;92.20;;;;;;5072999;28;19909;-67
2021/07/22 01:32:25;;;;;;;;;;;12.60;91.90;;;;;;5072600;28;20323;-65
2021/07/22 01:34:52;;;;;;;;;;;12.50;91.60;;;;;;5072799;28;20326;-65
2021/07/22 01:37:18;;;;;;;;;;;12.40;91.20;;;;;;5071396;28;20374;-66
2021/07/22 01:39:45;;;;;;;;;;;12.30;91.70;;;;;;5072641;28;19914;-66
2021/07/22 01:42:11;;;;;;;;;;;12.30;91.70;;;;;;5072596;28;19910;-64
2021/07/22 01:44:38;;;;;;;;;;;12.30;91.40;;;;;;5072371;28;19927;-67
2021/07/22 01:47:05;;;;;;;;;;;12.20;91.60;;;;;;5072651;28;19912;-65
2021/07/22 01:49:32;;;;;;;;;;;12.20;92.10;;;;;;5072384;28;19962;-65
2021/07/22 01:52:02;;;;;;;;;;;12.20;92.20;;;;;;5072579;28;19912;-64
2021/07/22 01:54:28;;;;;;;;;;;12.30;91.80;;;;;;5072503;28;20319;-64
2021/07/22 01:56:59;;;;;;;;;;;12.30;91.60;;;;;;5072389;28;20260;-66
2021/07/22 01:59:26;;;;;;;;;;;12.20;91.40;;;;;;5072568;28;20445;-64
2021/07/22 02:01:52;;;;;;;;;;;12.20;92.10;;;;;;5071182;28;20007;-64
2021/07/22 02:04:19;;;;;;;;;;;12.20;92.10;;;;;;5072583;28;19954;-66
2021/07/22 02:06:45;;;;;;;;;;;12.20;92.10;;;;;;5072485;28;19965;-66
2021/07/22 02:09:12;;;;;;;;;;;12.40;92.20;;;;;;5072435;28;19953;-66
2021/07/22 02:11:39;;;;;;;;;;;12.40;91.50;;;;;;5072344;28;19908;-66
2021/07/22 02:14:05;;;;;;;;;;;12.40;91.30;;;;;;5072384;28;19912;-64
2021/07/22 02:16:32;;;;;;;;;;;12.40;91.40;;;;;;5071947;28;20303;-64
2021/07/22 02:18:59;;;;;;;;;;;12.40;91.10;;;;;;5072335;28;19913;-64
2021/07/22 02:21:25;;;;;;;;;;;12.50;91.20;;;;;;5072307;28;20002;-65
2021/07/22 02:23:52;;;;;;;;;;;12.50;91.10;;;;;;5071359;28;19909;-67
2021/07/22 02:26:19;;;;;;;;;;;12.50;91.30;;;;;;5072167;28;19969;-66
2021/07/22 02:28:45;;;;;;;;;;;12.50;90.80;;;;;;5072171;28;20473;-66
2021/07/22 02:31:12;;;;;;;;;;;12.50;90.80;;;;;;5072185;28;19909;-66
2021/07/22 02:33:39;;;;;;;;;;;12.60;91.10;;;;;;5071691;28;19915;-67
2021/07/22 02:36:05;;;;;;;;;;;12.60;91.20;;;;;;5072018;28;20057;-66
2021/07/22 02:38:32;;;;;;;;;;;12.60;91.50;;;;;;5072000;28;19947;-67
2021/07/22 02:40:58;;;;;;;;;;;12.70;91.00;;;;;;5072169;28;19916;-65
2021/07/22 02:43:25;;;;;;;;;;;12.70;90.80;;;;;;5071884;28;20295;-66
2021/07/22 02:45:52;;;;;;;;;;;12.80;90.50;;;;;;5071747;28;19916;-65
2021/07/22 02:48:18;;;;;;;;;;;12.90;90.50;;;;;;5072054;28;19912;-65
2021/07/22 02:50:46;;;;;;;;;;;12.90;90.10;;;;;;5072237;28;19944;-66
2021/07/22 02:53:12;;;;;;;;;;;13.00;90.10;;;;;;5072110;28;19939;-65
2021/07/22 02:55:39;;;;;;;;;;;13.00;90.00;;;;;;5071725;28;19909;-65
2021/07/22 02:58:06;;;;;;;;;;;13.00;88.90;;;;;;5071804;28;19927;-65
2021/07/22 03:00:33;;;;;;;;;;;13.10;89.50;;;;;;5071744;28;19909;-65
2021/07/22 03:03:01;;;;;;;;;;;13.10;87.40;;;;;;5071947;28;19920;-66
2021/07/22 03:05:30;;;;;;;;;;;13.00;87.30;;;;;;5071773;28;20342;-66
2021/07/22 03:08:01;;;;;;;;;;;12.90;88.10;;;;;;5071876;28;19908;-67
2021/07/22 03:10:28;;;;;;;;;;;12.90;88.80;;;;;;5071869;28;19912;-68
2021/07/22 03:12:54;;;;;;;;;;;12.90;88.70;;;;;;5071818;28;19922;-67
2021/07/22 03:15:21;;;;;;;;;;;13.00;89.00;;;;;;5071560;28;19913;-68
2021/07/22 03:17:48;;;;;;;;;;;13.10;87.00;;;;;;5071478;28;19916;-68
2021/07/22 03:20:15;;;;;;;;;;;13.00;90.00;;;;;;5071684;28;19908;-66
2021/07/22 03:22:41;;;;;;;;;;;13.40;86.00;;;;;;5071760;28;19916;-65
2021/07/22 03:25:08;;;;;;;;;;;13.70;84.00;;;;;;5071714;28;19908;-66
2021/07/22 03:27:35;;;;;;;;;;;13.90;83.40;;;;;;5071462;28;19915;-67
2021/07/22 03:30:02;;;;;;;;;;;14.20;84.50;;;;;;5071372;28;19908;-66
2021/07/22 03:32:29;;;;;;;;;;;14.40;83.70;;;;;;5071481;28;20283;-66
2021/07/22 03:34:55;;;;;;;;;;;14.20;83.00;;;;;;5071938;28;20332;-66
2021/07/22 03:37:22;;;;;;;;;;;14.30;83.90;;;;;;5075197;28;19917;-67
2021/07/22 03:39:49;;;;;;;;;;;14.40;82.80;;;;;;5074919;28;20048;-65
2021/07/22 03:42:15;;;;;;;;;;;14.60;83.00;;;;;;5074879;28;20361;-66
2021/07/22 03:44:42;;;;;;;;;;;14.50;83.50;;;;;;5074670;28;20457;-66
2021/07/22 03:47:09;;;;;;;;;;;14.50;83.70;;;;;;5074982;28;19948;-68
2021/07/22 03:49:35;;;;;;;;;;;14.50;85.00;;;;;;5074748;28;19915;-67
2021/07/22 03:52:02;;;;;;;;;;;14.50;84.90;;;;;;5075075;28;20329;-67
2021/07/22 03:54:30;;;;;;;;;;;14.30;86.30;;;;;;5075087;28;19962;-66
2021/07/22 03:56:57;;;;;;;;;;;14.10;86.80;;;;;;5074802;28;19913;-67
2021/07/22 03:59:23;;;;;;;;;;;14.00;87.50;;;;;;5074598;28;19931;-67
2021/07/22 04:01:50;;;;;;;;;;;14.00;87.80;;;;;;5074480;28;19912;-66
2021/07/22 04:04:17;;;;;;;;;;;14.00;88.60;;;;;;5074387;28;19908;-68
2021/07/22 04:06:44;;;;;;;;;;;14.00;89.60;;;;;;5074632;28;20054;-67
2021/07/22 04:09:11;;;;;;;;;;;14.10;89.70;;;;;;5074425;28;19954;-67
2021/07/22 04:11:38;;;;;;;;;;;14.10;89.90;;;;;;5074273;28;19908;-66
2021/07/22 04:14:05;;;;;;;;;;;14.10;90.30;;;;;;5074351;28;19916;-67
2021/07/22 04:16:31;;;;;;;;;;;14.20;89.40;;;;;;5073215;28;20566;-66
2021/07/22 04:18:58;;;;;;;;;;;14.10;90.10;;;;;;5074306;28;19908;-67
2021/07/22 04:21:25;;;;;;;;;;;14.20;89.00;;;;;;5074132;28;19961;-66
2021/07/22 04:23:51;;;;;;;;;;;14.10;90.60;;;;;;5074187;28;19938;-66
2021/07/22 04:26:18;;;;;;;;;;;14.00;91.20;;;;;;5074314;28;20366;-66
2021/07/22 04:28:45;;;;;;;;;;;14.10;91.10;;;;;;5074245;28;19909;-67
2021/07/22 04:31:15;;;;;;;;;;;14.30;91.10;;;;;;5073850;28;19909;-67
2021/07/22 04:33:42;;;;;;;;;;;14.30;89.40;;;;;;5073848;28;19908;-66
2021/07/22 04:36:09;;;;;;;;;;;14.30;88.90;;;;;;5074121;28;20031;-66
2021/07/22 04:38:37;;;;;;;;;;;14.40;88.10;;;;;;5074049;28;19916;-66
2021/07/22 04:41:04;;;;;;;;;;;14.70;89.00;;;;;;5074067;28;19909;-67
2021/07/22 04:43:31;;;;;;;;;;;14.90;83.40;;;;;;5073509;28;19924;-66
2021/07/22 04:46:07;;;;;;;;;;;14.90;84.00;;;;;;5073624;28;20321;-67
2021/07/22 04:48:33;;;;;;;;;;;14.90;85.00;;;;;;5073176;28;20279;-66
2021/07/22 04:51:05;;;;;;;;;;;14.90;85.10;;;;;;5073629;28;19912;-68
2021/07/22 04:53:33;;;;;;;;;;;14.80;85.70;;;;;;5073349;28;19962;-68
2021/07/22 04:56:00;;;;;;;;;;;14.70;84.90;;;;;;5073655;28;19932;-67
2021/07/22 04:58:27;;;;;;;;;;;14.60;85.70;;;;;;5073474;28;19921;-67
2021/07/22 05:00:54;;;;;;;;;;;14.90;83.50;;;;;;5073323;28;20018;-65
2021/07/22 05:03:20;;;;;;;;;;;14.90;83.90;;;;;;5073279;28;20252;-65
2021/07/22 05:05:47;;;;;;;;;;;14.90;84.80;;;;;;5073048;28;19915;-68
2021/07/22 05:08:14;;;;;;;;;;;14.90;83.70;;;;;;5073364;28;19915;-68
2021/07/22 05:10:40;;;;;;;;;;;14.90;84.20;;;;;;5073273;28;19962;-67
2021/07/22 05:13:07;;;;;;;;;;;14.80;84.60;;;;;;5073250;28;19908;-67
2021/07/22 05:15:34;;;;;;;;;;;14.90;84.10;;;;;;5072972;28;19909;-67
2021/07/22 05:18:00;;;;;;;;;;;14.80;85.50;;;;;;5073070;28;19923;-68
2021/07/22 05:20:27;;;;;;;;;;;14.80;83.40;;;;;;5073128;28;19909;-65
2021/07/22 05:22:54;;;;;;;;;;;14.80;83.10;;;;;;5072975;28;19908;-66
2021/07/22 05:25:20;;;;;;;;;;;14.70;84.00;;;;;;5072899;28;20375;-65
2021/07/22 05:27:47;;;;;;;;;;;14.70;82.60;;;;;;5072545;28;19908;-65
2021/07/22 05:30:14;;;;;;;;;;;14.70;83.00;;;;;;5073023;28;19969;-66
2021/07/22 05:32:40;;;;;;;;;;;14.60;84.30;;;;;;5072844;28;19999;-66
2021/07/22 05:35:08;;;;;;;;;;;14.50;85.60;;;;;;5072919;28;19935;-65
2021/07/22 05:37:35;;;;;;;;;;;14.40;85.00;;;;;;5104806;28;19917;-66
2021/07/22 05:40:02;;;;;;;;;;;14.40;86.90;;;;;;5072719;28;19916;-65
2021/07/22 05:42:28;;;;;;;;;;;14.30;87.30;;;;;;5072820;28;19977;-66
2021/07/22 05:44:55;;;;;;;;;;;14.30;87.30;;;;;;5072014;28;19920;-66
2021/07/22 05:47:22;;;;;;;;;;;14.20;88.70;;;;;;5072637;28;19908;-65
2021/07/22 05:49:48;;;;;;;;;;;14.10;89.20;;;;;;5072485;28;19909;-66
2021/07/22 05:52:15;;;;;;;;;;;14.10;89.40;;;;;;5072628;28;19909;-65
2021/07/22 05:54:41;;;;;;;;;;;14.00;90.40;;;;;;5072617;28;19910;-65
2021/07/22 05:57:08;;;;;;;;;;;14.00;91.20;;;;;;5072470;28;19962;-67
2021/07/22 05:59:36;;;;;;;;;;;14.00;91.30;;;;;;5072098;28;19913;-67
2021/07/22 06:02:03;;;;;;;;;;;14.00;91.10;;;;;;5072250;28;20317;-65
2021/07/22 06:04:30;;;;;;;;;;;13.90;91.60;;;;;;5072494;28;19915;-68
2021/07/22 06:06:57;;;;;;;;;;;13.90;91.50;;;;;;5072400;28;20329;-68
2021/07/22 06:09:23;;;;;;;;;;;13.80;92.40;;;;;;5072579;28;19919;-67
2021/07/22 06:11:50;;;;;;;;;;;13.80;92.00;;;;;;5072161;28;19917;-65
2021/07/22 06:14:17;;;;;;;;;;;13.80;92.80;;;;;;5071974;28;19973;-65
2021/07/22 06:16:43;;;;;;;;;;;13.90;92.50;;;;;;5072079;28;19960;-65
2021/07/22 06:19:10;;;;;;;;;;;13.90;93.20;;;;;;5072303;28;19912;-65
2021/07/22 06:21:37;;;;;;;;;;;13.90;93.20;;;;;;5071987;28;20526;-65
2021/07/22 06:24:04;;;;;;;;;;;13.70;93.70;;;;;;5072048;28;20389;-65
2021/07/22 06:26:36;;;;;;;;;;;13.70;93.80;;;;;;5072276;28;20369;-65
2021/07/22 06:29:03;;;;;;;;;;;13.70;94.40;;;;;;5072056;28;19908;-64
2021/07/22 06:31:30;;;;;;;;;;;13.70;94.50;;;;;;5072290;28;19908;-65
2021/07/22 06:33:57;;;;;;;;;;;13.70;94.90;;;;;;5072433;28;19916;-65
2021/07/22 06:36:24;;;;;;;;;;;13.60;95.30;;;;;;5071974;28;20386;-65
2021/07/22 06:38:51;;;;;;;;;;;13.50;95.50;;;;;;5072253;28;19916;-65
2021/07/22 06:41:21;;;;;;;;;;;13.50;95.90;;;;;;5072035;28;19908;-65
2021/07/22 06:43:48;;;;;;;;;;;13.50;96.10;;;;;;5071455;28;19951;-65
2021/07/22 06:46:15;;;;;;;;;;;13.40;96.50;;;;;;5071877;28;20275;-65
2021/07/22 06:48:42;;;;;;;;;;;13.30;96.90;;;;;;5072094;28;19908;-65
2021/07/22 06:51:08;;;;;;;;;;;13.20;97.00;;;;;;5072052;28;19908;-65
2021/07/22 06:53:35;;;;;;;;;;;13.20;97.40;;;;;;5071641;28;20412;-65
2021/07/22 06:56:05;;;;;;;;;;;13.20;97.50;;;;;;5071851;28;19909;-66
2021/07/22 06:58:31;;;;;;;;;;;13.20;97.80;;;;;;5071830;28;20011;-67
2021/07/22 07:00:58;;;;;;;;;;;13.20;97.50;;;;;;5104094;28;19912;-67
2021/07/22 07:03:25;;;;;;;;;;;13.10;97.90;;;;;;5071878;28;19913;-68
2021/07/22 07:05:52;;;;;;;;;;;13.10;98.00;;;;;;5071527;28;20375;-68
2021/07/22 07:08:19;;;;;;;;;;;13.10;98.00;;;;;;5071592;28;19915;-66
2021/07/22 07:10:46;;;;;;;;;;;13.10;98.30;;;;;;5073320;28;19916;-65
2021/07/22 07:13:12;;;;;;;;;;;13.10;98.40;;;;;;5075456;28;19995;-67
2021/07/22 07:15:39;;;;;;;;;;;13.20;98.50;;;;;;5075229;28;20283;-68
2021/07/22 07:18:06;;;;;;;;;;;13.10;98.90;;;;;;5075492;28;19922;-66
2021/07/22 07:20:32;;;;;;;;;;;13.10;98.90;;;;;;5075641;28;20367;-65
2021/07/22 07:22:59;;;;;;;;;;;13.10;99.10;;;;;;5075299;28;19908;-65
2021/07/22 07:25:26;;;;;;;;;;;13.00;99.30;;;;;;5075243;28;19913;-66
2021/07/22 07:27:53;;;;;;;;;;;13.00;99.80;;;;;;5075002;28;19909;-66
2021/07/22 07:30:20;;;;;;;;;;;12.90;99.70;;;;;;5074939;28;19962;-67
2021/07/22 07:32:47;;;;;;;;;;;12.90;99.90;;;;;;5075162;28;19919;-67
2021/07/22 07:35:14;;;;;;;;;;;12.80;99.90;;;;;;5075143;28;20384;-68
2021/07/22 07:37:41;;;;;;;;;;;12.70;99.90;;;;;;5074744;28;20323;-67
2021/07/22 07:40:08;;;;;;;;;;;12.70;99.90;;;;;;5075010;28;19909;-66
2021/07/22 07:42:36;;;;;;;;;;;12.60;99.90;;;;;;5073536;28;19999;-67
2021/07/22 07:45:03;;;;;;;;;;;12.60;99.90;;;;;;5074543;28;20290;-67
2021/07/22 07:47:30;;;;;;;;;;;12.60;99.90;;;;;;5074741;28;20354;-66
2021/07/22 07:49:56;;;;;;;;;;;12.60;99.90;;;;;;5074841;28;19913;-66
2021/07/22 07:52:23;;;;;;;;;;;12.60;99.90;;;;;;5074870;28;19931;-66
2021/07/22 07:54:51;;;;;;;;;;;12.60;99.90;;;;;;5074431;28;20319;-67
2021/07/22 07:57:18;;;;;;;;;;;12.60;99.90;;;;;;5072017;28;19917;-65
2021/07/22 07:59:46;;;;;;;;;;;12.60;99.90;;;;;;5072131;28;19908;-65
2021/07/22 08:02:15;;;;;;;;;;;12.60;99.90;;;;;;5072841;28;19955;-64
2021/07/22 08:04:42;;;;;;;;;;;12.60;99.90;;;;;;5072902;28;19916;-64
2021/07/22 08:07:09;;;;;;;;;;;12.60;99.90;;;;;;5072402;28;19963;-64
2021/07/22 08:09:36;;;;;;;;;;;12.60;99.90;;;;;;5071979;28;19916;-64
2021/07/22 08:12:02;;;;;;;;;;;12.60;99.90;;;;;;5072583;28;19915;-64
2021/07/22 08:14:31;;;;;;;;;;;12.60;99.90;;;;;;5072251;28;19909;-64
2021/07/22 08:16:57;;;;;;;;;;;12.60;99.90;;;;;;5071908;28;20033;-64
2021/07/22 08:19:24;;;;;;;;;;;12.60;99.90;;;;;;5072414;28;19920;-64
2021/07/22 08:21:51;;;;;;;;;;;12.60;99.90;;;;;;5070578;28;19912;-65
2021/07/22 08:24:17;;;;;;;;;;;12.60;99.90;;;;;;5072300;28;20037;-68
2021/07/22 08:26:44;;;;;;;;;;;12.60;99.90;;;;;;5072065;28;20377;-68
2021/07/22 08:29:11;;;;;;;;;;;12.60;99.90;;;;;;5072020;28;20007;-65
2021/07/22 08:31:37;;;;;;;;;;;12.60;99.90;;;;;;5071710;28;19995;-68
2021/07/22 08:34:04;;;;;;;;;;;12.60;99.90;;;;;;5072039;28;19913;-67
2021/07/22 08:36:30;;;;;;;;;;;12.50;99.90;;;;;;5071464;28;19908;-67
2021/07/22 08:38:57;;;;;;;;;;;12.50;99.90;;;;;;5072005;28;20320;-66
2021/07/22 08:41:24;;;;;;;;;;;12.50;99.90;;;;;;5071849;28;19909;-68
2021/07/22 08:43:51;;;;;;;;;;;12.40;99.90;;;;;;5071541;28;19924;-67
2021/07/22 08:46:18;;;;;;;;;;;12.40;99.90;;;;;;5071831;28;19909;-68
2021/07/22 08:48:45;;;;;;;;;;;12.30;99.90;;;;;;5071393;28;20529;-68
2021/07/22 08:51:12;;;;;;;;;;;12.30;99.90;;;;;;5071846;28;20042;-68
2021/07/22 08:53:40;;;;;;;;;;;12.30;99.90;;;;;;5071548;28;20375;-67
2021/07/22 08:56:08;;;;;;;;;;;12.40;99.90;;;;;;5071672;28;20274;-65
2021/07/22 08:58:37;;;;;;;;;;;12.30;99.90;;;;;;5071370;28;19927;-65
2021/07/22 09:01:06;;;;;;;;;;;12.30;99.90;;;;;;5071011;28;19915;-65
2021/07/22 09:03:33;;;;;;;;;;;12.30;99.90;;;;;;5071296;28;19968;-66
2021/07/22 09:06:00;;;;;;;;;;;12.30;99.90;;;;;;5071344;28;19915;-66
2021/07/22 09:08:26;;;;;;;;;;;12.30;99.90;;;;;;5071226;28;20302;-66
2021/07/22 09:11:09;;;;;;;;;;;12.30;99.90;;;;;;5071542;28;19913;-66
2021/07/22 09:13:36;;;;;;;;;;;12.30;99.90;;;;;;5070553;28;19966;-65
2021/07/22 09:16:04;;;;;;;;;;;12.20;99.90;;;;;;5071179;28;19908;-66
2021/07/22 09:18:35;;;;;;;;;;;12.20;99.90;;;;;;5071076;28;19916;-66
2021/07/22 09:21:22;;;;;;;;;;;12.20;99.90;;;;;;5071221;28;19915;-65
2021/07/22 09:24:04;;;;;;;;;;;12.20;99.90;;;;;;5070725;28;20412;-65
2021/07/22 09:26:32;;;;;;;;;;;12.20;99.90;;;;;;5071450;28;19917;-67
2021/07/22 09:29:17;;;;;;;;;;;12.20;99.90;;;;;;5070853;28;20393;-65
2021/07/22 09:31:46;;;;;;;;;;;12.20;99.90;;;;;;5071035;28;19995;-65
2021/07/22 09:34:25;;;;;;;;;;;12.20;99.90;;;;;;5070515;28;19908;-65
2021/07/22 09:36:52;;;;;;;;;;;12.10;99.90;;;;;;5070801;28;20347;-65
2021/07/22 09:39:26;;;;;;;;;;;12.10;99.90;;;;;;5070804;28;19993;-65
2021/07/22 09:42:03;;;;;;;;;;;12.10;99.90;;;;;;5070223;28;19991;-65
2021/07/22 09:44:34;;;;;;;;;;;12.10;99.90;;;;;;5070585;28;19967;-65
2021/07/22 09:47:01;;;;;;;;;;;12.10;99.90;;;;;;5070752;28;20378;-65
2021/07/22 09:49:35;;;;;;;;;;;12.10;99.90;;;;;;5070782;28;19916;-65
2021/07/22 09:52:02;;;;;;;;;;;12.10;99.90;;;;;;5070876;28;20424;-65
2021/07/22 09:54:36;;;;;;;;;;;12.10;99.90;;;;;;5070363;28;19943;-65
2021/07/22 09:57:03;;;;;;;;;;;12.20;99.90;;;;;;5070662;28;19925;-65
2021/07/22 09:59:32;;;;;;;;;;;12.10;99.90;;;;;;5070578;28;19923;-65
2021/07/22 10:02:04;;;;;;;;;;;12.10;99.90;;;;;;5070405;28;19916;-65
2021/07/22 10:04:31;;;;;;;;;;;12.10;99.90;;;;;;5070664;28;19908;-66
2021/07/22 10:07:00;;;;;;;;;;;12.10;99.90;;;;;;5070110;28;20425;-66
2021/07/22 10:09:28;;;;;;;;;;;12.20;99.90;;;;;;5070481;28;20006;-67
2021/07/22 10:11:55;;;;;;;;;;;12.10;99.90;;;;;;5070299;28;19915;-67
2021/07/22 10:14:23;;;;;;;;;;;12.10;99.90;;;;;;5070286;28;20313;-67
2021/07/22 10:16:51;;;;;;;;;;;12.10;99.90;;;;;;5070505;28;20375;-67
2021/07/22 10:19:18;;;;;;;;;;;12.10;99.90;;;;;;5070968;28;19948;-67
2021/07/22 10:21:44;;;;;;;;;;;12.10;99.90;;;;;;5073597;28;19908;-66
2021/07/22 10:24:11;;;;;;;;;;;12.10;99.90;;;;;;5070108;28;19916;-66
2021/07/22 10:26:41;;;;;;;;;;;12.10;99.90;;;;;;5070284;28;19965;-65
2021/07/22 10:29:08;;;;;;;;;;;12.10;99.90;;;;;;5070427;28;19909;-65
2021/07/22 10:31:39;;;;;;;;;;;12.10;99.90;;;;;;5069823;28;19912;-66
2021/07/22 10:34:07;;;;;;;;;;;12.10;99.90;;;;;;5069408;28;20319;-65
2021/07/22 10:36:34;;;;;;;;;;;12.00;99.90;;;;;;5070049;28;19915;-65
2021/07/22 10:39:01;;;;;;;;;;;12.00;99.90;;;;;;5070007;28;20010;-65
2021/07/22 10:41:38;;;;;;;;;;;12.00;99.90;;;;;;5070092;28;19952;-67
2021/07/22 10:44:05;;;;;;;;;;;12.00;99.90;;;;;;5069633;28;19923;-67
2021/07/22 10:46:49;;;;;;;;;;;12.00;99.90;;;;;;5072642;28;20279;-65
2021/07/22 10:49:16;;;;;;;;;;;12.00;99.90;;;;;;5073548;28;19944;-65
2021/07/22 10:51:45;;;;;;;;;;;12.00;99.90;;;;;;5073694;28;19978;-65
2021/07/22 10:54:31;;;;;;;;;;;12.00;99.90;;;;;;5074052;28;19909;-67
2021/07/22 10:56:58;;;;;;;;;;;12.00;99.90;;;;;;5069428;28;19927;-67
2021/07/22 10:59:45;;;;;;;;;;;12.00;99.90;;;;;;5073468;28;19999;-67
2021/07/22 11:02:31;;;;;;;;;;;11.90;99.90;;;;;;5069766;28;19995;-67
2021/07/22 11:04:57;;;;;;;;;;;12.00;99.90;;;;;;5073204;28;19919;-68
2021/07/22 11:07:24;;;;;;;;;;;11.90;99.90;;;;;;5073559;28;20313;-68
2021/07/22 11:09:53;;;;;;;;;;;11.90;99.90;;;;;;5073468;28;19967;-68
2021/07/22 11:12:38;;;;;;;;;;;11.90;99.90;;;;;;5072977;28;19915;-67
2021/07/22 11:15:08;;;;;;;;;;;12.00;99.90;;;;;;5073415;28;19950;-67
2021/07/22 11:17:36;;;;;;;;;;;11.90;99.90;;;;;;5073100;28;19952;-68
2021/07/22 11:20:20;;;;;;;;;;;12.00;99.90;;;;;;5072788;28;19934;-68
2021/07/22 11:22:48;;;;;;;;;;;11.90;99.90;;;;;;5073420;28;19909;-68
2021/07/22 11:25:15;;;;;;;;;;;12.00;99.90;;;;;;5073130;28;19909;-68
2021/07/22 11:27:47;;;;;;;;;;;12.00;99.90;;;;;;5073044;28;19952;-68
2021/07/22 11:30:15;;;;;;;;;;;12.00;99.90;;;;;;5073360;28;19908;-68
2021/07/22 11:32:41;;;;;;;;;;;12.00;99.90;;;;;;5073150;28;20025;-68
2021/07/22 11:35:08;;;;;;;;;;;12.00;99.90;;;;;;5072643;28;19908;-67
2021/07/22 11:37:35;;;;;;;;;;;12.00;99.90;;;;;;5072455;28;19935;-68
2021/07/22 11:40:09;;;;;;;;;;;11.90;99.90;;;;;;5073079;28;19935;-67
2021/07/22 11:42:48;;;;;;;;;;;12.00;99.90;;;;;;5072933;28;19995;-68
2021/07/22 11:45:15;;;;;;;;;;;12.00;99.90;;;;;;5073049;28;19929;-66
2021/07/22 11:47:41;;;;;;;;;;;11.90;99.90;;;;;;5072556;28;20054;-66
2021/07/22 11:50:09;;;;;;;;;;;11.90;99.90;;;;;;5072322;28;19932;-65
2021/07/22 11:52:36;;;;;;;;;;;11.90;99.90;;;;;;5072578;28;19960;-65
2021/07/22 11:55:06;;;;;;;;;;;11.90;99.90;;;;;;5072671;28;19913;-66
2021/07/22 11:57:42;;;;;;;;;;;11.90;99.90;;;;;;5073454;28;19916;-66
2021/07/22 12:00:19;;;;;;;;;;;11.90;99.90;;;;;;5074775;28;19910;-66
2021/07/22 12:02:52;;;;;;;;;;;11.90;99.90;;;;;;5074713;28;19920;-66
2021/07/22 12:05:25;;;;;;;;;;;11.80;99.90;;;;;;5074380;28;19908;-66
2021/07/22 12:07:57;;;;;;;;;;;11.80;99.90;;;;;;5074479;28;19931;-66
2021/07/22 12:10:28;;;;;;;;;;;11.80;99.90;;;;;;5074668;28;20359;-66
2021/07/22 12:12:58;;;;;;;;;;;11.80;99.90;;;;;;5074565;28;19966;-66
2021/07/22 12:15:24;;;;;;;;;;;11.80;99.90;;;;;;5074652;28;20316;-66
2021/07/22 12:17:51;;;;;;;;;;;11.80;99.90;;;;;;5073900;28;20019;-66
2021/07/22 12:20:18;;;;;;;;;;;11.80;99.90;;;;;;5074479;28;19908;-66
2021/07/22 12:22:44;;;;;;;;;;;11.80;99.90;;;;;;5074226;28;19952;-65
2021/07/22 12:25:12;;;;;;;;;;;11.80;99.90;;;;;;5072889;28;19908;-66
2021/07/22 12:27:43;;;;;;;;;;;11.80;99.90;;;;;;5074510;28;19915;-68
2021/07/22 12:30:21;;;;;;;;;;;11.80;99.90;;;;;;5074556;28;19923;-65
2021/07/22 12:32:55;;;;;;;;;;;11.80;99.90;;;;;;5073694;28;19909;-66
2021/07/22 12:35:32;;;;;;;;;;;11.80;99.90;;;;;;5074036;28;19919;-68
2021/07/22 12:38:01;;;;;;;;;;;11.80;99.90;;;;;;5074259;28;19917;-69
2021/07/22 12:40:50;;;;;;;;;;;11.80;99.90;;;;;;5074141;28;20375;-65
2021/07/22 12:43:20;;;;;;;;;;;11.80;99.90;;;;;;5070596;28;19961;-66
2021/07/22 12:45:48;;;;;;;;;;;11.80;99.90;;;;;;5073593;28;20320;-66
2021/07/22 12:48:15;;;;;;;;;;;11.80;99.90;;;;;;5073415;28;19909;-66
2021/07/22 12:50:43;;;;;;;;;;;11.80;99.90;;;;;;5073818;28;20390;-66
2021/07/22 12:53:11;;;;;;;;;;;11.90;99.90;;;;;;5073774;28;19908;-66
2021/07/22 12:55:41;;;;;;;;;;;11.90;99.90;;;;;;5073476;28;19908;-66
2021/07/22 12:58:27;;;;;;;;;;;11.90;99.90;;;;;;5073429;28;19917;-66
2021/07/22 13:01:00;;;;;;;;;;;11.90;99.90;;;;;;5073492;28;20267;-66
2021/07/22 13:03:28;;;;;;;;;;;12.00;99.90;;;;;;5073029;28;20282;-66
2021/07/22 13:05:55;;;;;;;;;;;12.00;99.90;;;;;;5106101;28;19908;-66
2021/07/22 13:08:21;;;;;;;;;;;12.00;99.90;;;;;;5072652;28;19960;-66
2021/07/22 13:10:48;;;;;;;;;;;12.00;99.90;;;;;;5073428;28;20384;-66
2021/07/22 13:13:15;;;;;;;;;;;12.00;99.90;;;;;;5073379;28;20373;-66
2021/07/22 13:15:42;;;;;;;;;;;12.00;99.90;;;;;;5073239;28;19917;-66
2021/07/22 13:18:17;;;;;;;;;;;12.10;99.90;;;;;;5073296;28;19963;-66
2021/07/22 13:20:44;;;;;;;;;;;12.10;99.90;;;;;;5073304;28;19909;-64
2021/07/22 13:23:11;;;;;;;;;;;12.10;99.90;;;;;;5073147;28;19915;-66
2021/07/22 13:25:39;;;;;;;;;;;12.10;99.90;;;;;;5073107;28;19908;-66
2021/07/22 13:28:05;;;;;;;;;;;12.10;99.90;;;;;;5073339;28;19908;-66
2021/07/22 13:30:32;;;;;;;;;;;12.20;99.90;;;;;;5073213;28;19915;-66
2021/07/22 13:32:59;;;;;;;;;;;12.20;99.90;;;;;;5073101;28;19996;-65
2021/07/22 13:35:34;;;;;;;;;;;12.20;99.90;;;;;;5073193;28;19909;-66
2021/07/22 13:38:10;;;;;;;;;;;12.30;99.90;;;;;;5072968;28;20015;-66
2021/07/22 13:40:37;;;;;;;;;;;12.20;99.90;;;;;;5073317;28;19913;-66
2021/07/22 13:43:04;;;;;;;;;;;12.30;99.90;;;;;;5072538;28;19927;-66
2021/07/22 13:45:31;;;;;;;;;;;12.30;99.90;;;;;;5072809;28;19908;-66
2021/07/22 13:47:58;;;;;;;;;;;12.30;99.90;;;;;;5075031;28;19909;-66
2021/07/22 13:50:25;;;;;;;;;;;12.30;99.90;;;;;;5072870;28;20283;-66
2021/07/22 13:52:52;;;;;;;;;;;12.30;99.90;;;;;;5072911;28;20286;-66
2021/07/22 13:55:19;;;;;;;;;;;12.30;99.90;;;;;;5072727;28;20325;-67
2021/07/22 13:57:45;;;;;;;;;;;12.30;99.90;;;;;;5072167;28;19925;-66
2021/07/22 14:00:12;;;;;;;;;;;12.30;99.90;;;;;;5072699;28;19908;-66
2021/07/22 14:02:39;;;;;;;;;;;12.40;99.90;;;;;;5072585;28;19931;-66
2021/07/22 14:05:06;;;;;;;;;;;12.40;99.90;;;;;;5072598;28;19913;-67
2021/07/22 14:07:33;;;;;;;;;;;12.40;99.90;;;;;;5072538;28;19912;-66
2021/07/22 14:10:00;;;;;;;;;;;12.40;99.90;;;;;;5072464;28;19999;-66
2021/07/22 14:12:27;;;;;;;;;;;12.40;99.90;;;;;;5072363;28;19955;-69
2021/07/22 14:14:54;;;;;;;;;;;12.40;99.90;;;;;;5072433;28;20340;-68
2021/07/22 14:17:20;;;;;;;;;;;12.30;99.90;;;;;;5072344;28;19983;-68
2021/07/22 14:19:47;;;;;;;;;;;12.30;99.90;;;;;;5072317;28;19954;-69
2021/07/22 14:22:14;;;;;;;;;;;12.30;99.90;;;;;;5072435;28;19915;-69
2021/07/22 14:24:40;;;;;;;;;;;12.30;99.90;;;;;;5072415;28;20008;-67